الصفحة الرئيسية
METAR-TAF:

METAR-TAF

مطار :

بريزبين, أستراليا

دائرة عرض: 27-23S, خط طول: 153-06E, ارتفاع: 4 متر

مراقبة الطقس الحالي

تاريخ ووقت الإصدار 36 دقيقة قبل الساعة 20:30UTC
ريح 4 عقدة من الغرب
درجة الحرارة 10°درجة مئوية
الرطوبة 76%
ضغط 1017 hPa
الرؤية 10 كم أو أكثر
الغيوم لا تقل 1500 م ولا وجود لمزنة ركامية السحاب الأسود

METAR: YBBN 252030Z 27004KT CAVOK 10/06 Q1017 NOSIG

زمن: 07:06 (21:06 UTC)

توقعات

تاريخ ووقت الإصدار 4ساعات و 2 دقيقة قبل الساعة 17:04UTC
التوقعات صالحة من25 الساعة 18 UTC إلى 27 الساعة 00 UTC
ريح 5 عقدة من الغرب/الجنوب الغربي
الرؤية 10 كم أو أكثر
الغيوم لا تقل 1500 م ولا وجود لمزنة ركامية السحاب الأسود
من 26 الساعة 0200 UTC
ريح 9 عقدة من الشمال/الشمال الشرقي
الرؤية 10 كم أو أكثر
الغيوم لا تقل 1500 م ولا وجود لمزنة ركامية السحاب الأسود
من 26 الساعة 1000 UTC
ريح 5 عقدة من الغرب/الجنوب الغربي
الرؤية 10 كم أو أكثر
الغيوم لا تقل 1500 م ولا وجود لمزنة ركامية السحاب الأسود

TAF: YBBN 251704Z 2518/2700 24005KT CAVOK FM260200 03009KT CAVOK FM261000 24005KT CAVOK

أرصاد الطقس والتوقعات من أكثر من 4000 مطار (تقارير الطقس للمطار METAR والتنبؤ بالطقس بالمطارTAF).

المحطات المتاحة هي النقط الصفراء والحمراء على الخريطة.

حرك المؤشر فوق النقطة لمعرفة اسم المحطة.

ثم انقر لمعرفة أرصاد وتوقعات الطقس.

لتغيير الخارطة: اضغط على الأزرار الخضراء مع رمز الصليب الأسود للتكبير. على الزر الأخضر مع شرطة للتصغير، أو على الأسهم الخضراء للخرائط المجاورة.


METAR-TAF: